createdAt,value
2023-01-29T00:00:15.457Z,-0.60
2023-01-29T00:03:18.146Z,-0.54
2023-01-29T00:06:20.725Z,-0.60
2023-01-29T00:09:23.147Z,-0.63
2023-01-29T00:12:25.773Z,-0.66
2023-01-29T00:15:28.220Z,-0.63
2023-01-29T00:18:31.375Z,-0.65
2023-01-29T00:21:33.818Z,-0.63
2023-01-29T00:24:36.237Z,-0.65
2023-01-29T00:27:38.754Z,-0.48
2023-01-29T00:30:41.808Z,-0.56
2023-01-29T00:33:44.376Z,-0.48
2023-01-29T00:36:47.423Z,-0.39
2023-01-29T00:39:49.892Z,-0.31
2023-01-29T00:43:11.604Z,-0.39
2023-01-29T00:46:14.387Z,-0.10
2023-01-29T00:49:17.203Z,-0.04
2023-01-29T00:52:25.618Z,-0.12
2023-01-29T00:55:28.118Z,0.07
2023-01-29T00:58:34.344Z,0.13
2023-01-29T01:01:56.007Z,-0.03
2023-01-29T01:04:58.600Z,0.13
2023-01-29T01:08:00.977Z,0.25
2023-01-29T01:11:05.977Z,0.29
2023-01-29T01:14:08.958Z,0.40
2023-01-29T01:17:11.391Z,0.40
2023-01-29T01:20:15.011Z,0.23
2023-01-29T01:23:21.262Z,0.40
2023-01-29T01:26:23.722Z,0.44
2023-01-29T01:29:26.160Z,0.45
2023-01-29T01:32:28.784Z,0.35
2023-01-29T01:35:31.195Z,0.41
2023-01-29T01:38:33.617Z,0.30
2023-01-29T01:41:36.037Z,0.37
2023-01-29T01:45:01.283Z,0.48
2023-01-29T01:48:17.265Z,0.53
2023-01-29T01:51:20.751Z,0.55
2023-01-29T01:54:28.637Z,0.58
2023-01-29T01:57:31.471Z,0.58
2023-01-29T02:00:34.327Z,0.63
2023-01-29T02:04:03.313Z,0.49
2023-01-29T02:07:26.315Z,0.66
2023-01-29T02:10:30.163Z,0.43
2023-01-29T02:13:32.569Z,0.63
2023-01-29T02:16:36.842Z,0.55
2023-01-29T02:19:45.558Z,0.64
2023-01-29T02:22:55.403Z,0.58
2023-01-29T02:26:20.941Z,0.57
2023-01-29T02:29:30.567Z,0.53
2023-01-29T02:32:42.093Z,0.43
2023-01-29T02:35:56.764Z,0.33
2023-01-29T02:39:11.451Z,0.53
2023-01-29T02:42:28.684Z,0.41
2023-01-29T02:45:43.675Z,0.28
2023-01-29T02:48:55.686Z,0.55
2023-01-29T02:52:11.967Z,0.55
2023-01-29T02:55:18.689Z,0.36
2023-01-29T02:58:35.807Z,0.50
2023-01-29T03:01:48.794Z,0.49
2023-01-29T03:04:55.746Z,0.40
2023-01-29T03:08:10.217Z,0.42
2023-01-29T03:11:14.507Z,0.40
2023-01-29T03:14:57.031Z,0.41
2023-01-29T03:18:09.263Z,0.41
2023-01-29T03:21:36.097Z,0.49
2023-01-29T03:25:03.979Z,0.48
2023-01-29T03:28:28.634Z,0.37
2023-01-29T03:31:51.109Z,0.48
2023-01-29T03:34:58.771Z,0.45
2023-01-29T03:38:04.642Z,0.46
2023-01-29T03:41:20.728Z,0.27
2023-01-29T03:44:41.484Z,0.43
2023-01-29T03:48:00.246Z,0.49
2023-01-29T03:51:17.835Z,0.50
2023-01-29T03:54:28.300Z,0.39
2023-01-29T03:57:47.593Z,0.24
2023-01-29T04:01:05.013Z,0.38
2023-01-29T04:04:25.247Z,0.42
2023-01-29T04:07:33.307Z,0.49
2023-01-29T04:10:39.572Z,0.50
2023-01-29T04:13:43.294Z,0.51
2023-01-29T04:16:50.323Z,0.43
2023-01-29T04:20:16.748Z,0.41
2023-01-29T04:23:25.236Z,0.31
2023-01-29T04:26:28.142Z,0.39
2023-01-29T04:29:48.695Z,0.37
2023-01-29T04:33:02.652Z,0.40
2023-01-29T04:36:27.572Z,0.24
2023-01-29T04:39:55.355Z,0.36
2023-01-29T04:43:10.121Z,0.35
2023-01-29T04:46:15.379Z,0.38
2023-01-29T04:50:13.719Z,0.37
2023-01-29T04:53:37.737Z,0.37
2023-01-29T04:56:51.559Z,0.35
2023-01-29T05:00:18.091Z,0.34
2023-01-29T05:03:23.758Z,0.32
2023-01-29T05:06:26.689Z,0.37
2023-01-29T05:09:29.616Z,0.27
2023-01-29T05:12:33.314Z,0.35
2023-01-29T05:15:39.479Z,0.44
2023-01-29T05:18:42.541Z,0.40
2023-01-29T05:21:47.693Z,0.39
2023-01-29T05:24:50.959Z,0.51
2023-01-29T05:28:11.973Z,0.48
2023-01-29T05:31:15.334Z,0.46
2023-01-29T05:34:18.214Z,0.32
2023-01-29T05:37:20.680Z,0.39
2023-01-29T05:40:25.122Z,0.50
2023-01-29T05:43:27.780Z,0.48
2023-01-29T05:46:30.261Z,0.38
2023-01-29T05:49:32.670Z,0.47
2023-01-29T05:52:35.283Z,0.40
2023-01-29T05:55:37.757Z,0.32
2023-01-29T05:58:40.332Z,0.42
2023-01-29T06:01:42.852Z,0.44
2023-01-29T06:04:45.301Z,0.46
2023-01-29T06:07:47.791Z,0.34
2023-01-29T06:10:50.530Z,0.37
2023-01-29T06:13:52.983Z,0.35
2023-01-29T06:16:55.412Z,0.31
2023-01-29T06:19:57.873Z,0.32
2023-01-29T06:23:00.544Z,0.33
2023-01-29T06:26:05.966Z,0.41
2023-01-29T06:29:08.499Z,0.49
2023-01-29T06:32:11.007Z,0.41
2023-01-29T06:35:13.837Z,0.49
2023-01-29T06:38:16.262Z,0.60
2023-01-29T06:41:19.690Z,0.55
2023-01-29T06:44:22.151Z,0.51
2023-01-29T06:47:25.124Z,0.54
2023-01-29T06:50:27.537Z,0.51
2023-01-29T06:53:30.564Z,0.32
2023-01-29T06:56:33.025Z,0.39
2023-01-29T06:59:35.396Z,0.52
2023-01-29T07:02:37.868Z,0.37
2023-01-29T07:05:40.369Z,0.50
2023-01-29T07:08:42.821Z,0.47
2023-01-29T07:11:45.248Z,0.59
2023-01-29T07:14:47.803Z,0.40
2023-01-29T07:18:00.701Z,0.55
2023-01-29T07:21:07.243Z,0.35
2023-01-29T07:24:10.061Z,0.55
2023-01-29T07:27:12.464Z,0.53
2023-01-29T07:30:16.180Z,0.57
2023-01-29T07:33:18.956Z,0.53
2023-01-29T07:36:21.528Z,0.53
2023-01-29T07:39:23.988Z,0.44
2023-01-29T07:42:26.453Z,0.58
2023-01-29T07:45:29.713Z,0.61
2023-01-29T07:48:32.140Z,0.58
2023-01-29T07:51:34.700Z,0.57
2023-01-29T07:54:37.208Z,0.47
2023-01-29T07:57:39.658Z,0.62
2023-01-29T08:00:42.584Z,0.55
2023-01-29T08:03:45.089Z,0.47
2023-01-29T08:06:47.466Z,0.66
2023-01-29T08:09:50.690Z,0.61
2023-01-29T08:12:57.595Z,0.70
2023-01-29T08:16:04.392Z,0.69
2023-01-29T08:19:06.825Z,0.70
2023-01-29T08:22:09.589Z,0.78
2023-01-29T08:25:12.407Z,0.71
2023-01-29T08:28:14.879Z,0.75
2023-01-29T08:31:18.255Z,0.75
2023-01-29T08:34:20.795Z,0.76
2023-01-29T08:37:23.240Z,0.79
2023-01-29T08:40:26.590Z,0.79
2023-01-29T08:43:29.098Z,0.81
2023-01-29T08:46:32.298Z,0.77
2023-01-29T08:49:34.728Z,0.77
2023-01-29T08:52:37.256Z,0.77
2023-01-29T08:55:40.788Z,0.79
2023-01-29T08:58:43.566Z,0.77
2023-01-29T09:01:45.990Z,0.89
2023-01-29T09:04:48.688Z,0.81
2023-01-29T09:07:53.370Z,0.88
2023-01-29T09:10:59.727Z,0.97
2023-01-29T09:14:02.177Z,0.84
2023-01-29T09:17:04.669Z,0.86
2023-01-29T09:20:08.242Z,0.89
2023-01-29T09:23:11.552Z,0.97
2023-01-29T09:26:14.038Z,0.92
2023-01-29T09:29:18.191Z,1.06
2023-01-29T09:32:49.739Z,0.91
2023-01-29T09:35:43.909Z,1.03
2023-01-29T09:38:46.343Z,1.05
2023-01-29T09:42:13.568Z,1.18
2023-01-29T09:45:21.821Z,1.23
2023-01-29T09:48:26.880Z,1.06
2023-01-29T09:51:43.737Z,1.21
2023-01-29T09:54:57.813Z,1.21
2023-01-29T09:58:06.346Z,1.23
2023-01-29T10:01:32.139Z,1.27
2023-01-29T10:05:03.804Z,1.28
2023-01-29T10:08:40.345Z,1.27
2023-01-29T10:11:45.768Z,1.23
2023-01-29T10:14:57.908Z,1.26
2023-01-29T10:18:21.604Z,1.22
2023-01-29T10:21:49.830Z,1.19
2023-01-29T10:25:03.534Z,1.21
2023-01-29T10:28:15.832Z,1.28
2023-01-29T10:31:28.069Z,1.37
2023-01-29T10:34:39.272Z,1.32
2023-01-29T10:37:42.583Z,1.27
2023-01-29T10:41:11.457Z,1.37
2023-01-29T10:44:36.491Z,1.41
2023-01-29T10:47:52.701Z,1.42
2023-01-29T10:51:01.118Z,1.34
2023-01-29T10:54:13.715Z,1.29
2023-01-29T10:57:27.875Z,1.29
2023-01-29T11:00:39.571Z,1.29
2023-01-29T11:03:42.222Z,1.24
2023-01-29T11:06:44.826Z,1.25
2023-01-29T11:09:57.998Z,1.37
2023-01-29T11:13:00.564Z,1.36
2023-01-29T11:16:05.301Z,1.33
2023-01-29T11:19:07.881Z,1.26
2023-01-29T11:22:20.105Z,1.35
2023-01-29T11:25:22.707Z,1.27
2023-01-29T11:28:57.229Z,1.35
2023-01-29T11:32:01.012Z,1.34
2023-01-29T11:35:17.988Z,1.36
2023-01-29T11:38:28.705Z,1.35
2023-01-29T11:41:43.397Z,1.33
2023-01-29T11:44:45.794Z,1.38
2023-01-29T11:47:49.627Z,1.40
2023-01-29T11:51:05.539Z,1.33
2023-01-29T11:54:16.079Z,1.60
2023-01-29T11:57:34.699Z,1.48
2023-01-29T12:00:39.374Z,1.53
2023-01-29T12:03:44.897Z,1.44
2023-01-29T12:06:50.518Z,1.35
2023-01-29T12:09:56.117Z,1.38
2023-01-29T12:13:10.986Z,1.48
2023-01-29T12:16:18.921Z,1.48
2023-01-29T12:19:21.387Z,1.44
2023-01-29T12:22:34.754Z,1.45
2023-01-29T12:25:46.632Z,1.38
2023-01-29T12:29:14.710Z,1.35
2023-01-29T12:32:36.974Z,1.43
2023-01-29T12:35:44.792Z,1.38
2023-01-29T12:38:47.378Z,1.39
2023-01-29T12:42:25.496Z,1.52
2023-01-29T12:45:28.486Z,1.49
2023-01-29T12:48:34.314Z,1.49
2023-01-29T12:51:40.912Z,1.45
2023-01-29T12:54:49.968Z,1.37
2023-01-29T12:58:09.417Z,1.50
2023-01-29T13:01:17.680Z,1.42
2023-01-29T13:04:41.613Z,1.45
2023-01-29T13:07:50.072Z,1.36
2023-01-29T13:10:54.657Z,1.54
2023-01-29T13:14:01.699Z,1.50
2023-01-29T13:17:35.920Z,1.61
2023-01-29T13:20:39.498Z,1.72
2023-01-29T13:24:05.459Z,1.65
2023-01-29T13:27:27.015Z,1.92
2023-01-29T13:30:33.185Z,1.98
2023-01-29T13:33:35.817Z,1.84
2023-01-29T13:36:43.353Z,1.72
2023-01-29T13:39:53.315Z,1.66
2023-01-29T13:42:58.946Z,1.41
2023-01-29T13:46:11.564Z,1.32
2023-01-29T13:49:40.879Z,1.30
2023-01-29T13:52:45.715Z,1.00
2023-01-29T13:55:48.885Z,1.17
2023-01-29T13:58:55.296Z,1.11
2023-01-29T14:02:03.887Z,1.04
2023-01-29T14:05:31.396Z,1.11
2023-01-29T14:08:43.518Z,1.08
2023-01-29T14:11:50.056Z,0.97
2023-01-29T14:14:56.701Z,1.09
2023-01-29T14:18:19.974Z,1.18
2023-01-29T14:21:27.672Z,1.16
2023-01-29T14:24:31.057Z,1.20
2023-01-29T14:27:35.185Z,1.32
2023-01-29T14:30:38.364Z,1.26
2023-01-29T14:33:43.409Z,1.28
2023-01-29T14:36:47.906Z,1.29
2023-01-29T14:39:57.825Z,1.27
2023-01-29T14:43:06.323Z,1.22
2023-01-29T14:46:44.693Z,1.25
2023-01-29T14:49:50.303Z,1.22
2023-01-29T14:52:54.100Z,1.12
2023-01-29T14:56:00.905Z,0.86
2023-01-29T14:59:22.234Z,1.00
2023-01-29T15:02:33.766Z,0.86
2023-01-29T15:05:37.437Z,0.86
2023-01-29T15:08:44.006Z,0.96
2023-01-29T15:11:54.868Z,0.81
2023-01-29T15:15:05.724Z,0.92
2023-01-29T15:18:09.630Z,0.87
2023-01-29T15:21:17.184Z,0.87
2023-01-29T15:24:19.602Z,0.84
2023-01-29T15:27:22.158Z,0.65
2023-01-29T15:30:32.674Z,0.71
2023-01-29T15:33:38.616Z,0.73
2023-01-29T15:36:41.152Z,0.72
2023-01-29T15:39:44.124Z,0.82
2023-01-29T15:42:48.640Z,0.51
2023-01-29T15:45:52.173Z,0.37
2023-01-29T15:48:57.614Z,0.44
2023-01-29T15:52:04.881Z,0.70
2023-01-29T15:55:08.609Z,0.73
2023-01-29T15:58:19.427Z,0.70
2023-01-29T16:01:22.530Z,0.64
2023-01-29T16:04:28.928Z,0.77
2023-01-29T16:07:31.862Z,0.69
2023-01-29T16:10:34.995Z,0.58
2023-01-29T16:13:41.095Z,0.49
2023-01-29T16:16:49.082Z,0.55
2023-01-29T16:19:59.606Z,0.59
2023-01-29T16:23:02.712Z,0.67
2023-01-29T16:26:07.471Z,0.64
2023-01-29T16:29:13.185Z,0.73
2023-01-29T16:32:16.428Z,0.63
2023-01-29T16:35:19.494Z,0.56
2023-01-29T16:38:31.242Z,0.55
2023-01-29T16:41:38.267Z,0.55
2023-01-29T16:45:20.116Z,0.69
2023-01-29T16:48:27.798Z,0.56
2023-01-29T16:51:38.540Z,0.47
2023-01-29T16:54:44.273Z,0.36
2023-01-29T16:57:51.522Z,0.42
2023-01-29T17:00:56.294Z,0.31
2023-01-29T17:04:03.140Z,0.46
2023-01-29T17:07:05.884Z,0.41
2023-01-29T17:10:15.394Z,0.50
2023-01-29T17:13:30.328Z,0.42
2023-01-29T17:16:35.618Z,0.49
2023-01-29T17:19:39.254Z,0.46
2023-01-29T17:22:42.993Z,0.19
2023-01-29T17:25:46.730Z,0.20
2023-01-29T17:28:50.304Z,0.30
2023-01-29T17:31:53.292Z,0.20
2023-01-29T17:34:56.064Z,0.27
2023-01-29T17:37:59.295Z,0.31
2023-01-29T17:41:27.163Z,0.21
2023-01-29T17:44:29.794Z,0.15
2023-01-29T17:47:32.967Z,0.16
2023-01-29T17:50:36.452Z,0.11
2023-01-29T17:53:47.343Z,0.23
2023-01-29T17:56:50.867Z,0.21
2023-01-29T17:59:53.810Z,0.29
2023-01-29T18:02:58.029Z,0.32
2023-01-29T18:06:00.765Z,0.11
2023-01-29T18:09:03.955Z,0.25
2023-01-29T18:12:10.106Z,0.13
2023-01-29T18:15:14.349Z,-0.01
2023-01-29T18:18:22.193Z,0.06
2023-01-29T18:21:24.895Z,0.02
2023-01-29T18:24:28.054Z,0.17
2023-01-29T18:27:30.424Z,0.17
2023-01-29T18:30:33.593Z,0.32
2023-01-29T18:33:36.485Z,0.14
2023-01-29T18:36:38.929Z,0.21
2023-01-29T18:39:41.515Z,0.12
2023-01-29T18:42:45.949Z,0.16
2023-01-29T18:45:49.519Z,0.29
2023-01-29T18:48:52.359Z,0.13
2023-01-29T18:51:55.196Z,0.15
2023-01-29T18:54:57.839Z,0.05
2023-01-29T18:58:28.408Z,0.18
2023-01-29T19:01:23.795Z,0.11
2023-01-29T19:04:26.867Z,0.17
2023-01-29T19:07:29.685Z,0.33
2023-01-29T19:10:32.777Z,0.13
2023-01-29T19:13:36.252Z,0.02
2023-01-29T19:16:38.905Z,0.02
2023-01-29T19:19:41.424Z,0.03
2023-01-29T19:22:44.455Z,0.19
2023-01-29T19:25:47.498Z,0.09
2023-01-29T19:28:51.077Z,0.24
2023-01-29T19:31:54.102Z,0.09
2023-01-29T19:34:57.863Z,0.05
2023-01-29T19:38:01.165Z,-0.11
2023-01-29T19:41:05.365Z,0.08
2023-01-29T19:44:08.121Z,0.05
2023-01-29T19:47:10.929Z,0.08
2023-01-29T19:50:13.695Z,0.06
2023-01-29T19:53:16.376Z,-0.06
2023-01-29T19:56:19.959Z,-0.04
2023-01-29T19:59:22.882Z,-0.02
2023-01-29T20:02:25.959Z,0.03
2023-01-29T20:05:28.347Z,0.03
2023-01-29T20:08:31.576Z,0.10
2023-01-29T20:11:34.254Z,-0.17
2023-01-29T20:14:36.880Z,0.13
2023-01-29T20:17:39.643Z,0.07
2023-01-29T20:20:53.165Z,-0.01
2023-01-29T20:23:56.289Z,-0.06
2023-01-29T20:27:00.015Z,-0.07
2023-01-29T20:30:02.489Z,-0.18
2023-01-29T20:33:06.501Z,0.08
2023-01-29T20:36:10.937Z,0.13
2023-01-29T20:39:13.805Z,0.01
2023-01-29T20:42:16.586Z,-0.06
2023-01-29T20:45:19.842Z,-0.18
2023-01-29T20:48:23.047Z,-0.22
2023-01-29T20:51:26.041Z,-0.06
2023-01-29T20:54:30.124Z,-0.10
2023-01-29T20:57:33.030Z,-0.12
2023-01-29T21:00:35.992Z,-0.10
2023-01-29T21:03:39.768Z,-0.07
2023-01-29T21:06:43.619Z,-0.01
2023-01-29T21:09:46.613Z,0.16
2023-01-29T21:12:48.985Z,0.14
2023-01-29T21:15:51.445Z,0.21
2023-01-29T21:18:57.596Z,0.03
2023-01-29T21:22:00.084Z,0.16
2023-01-29T21:25:02.588Z,0.12
2023-01-29T21:28:06.115Z,0.04
2023-01-29T21:31:10.344Z,-0.06
2023-01-29T21:34:12.743Z,0.04
2023-01-29T21:37:15.360Z,0.01
2023-01-29T21:40:18.296Z,0.20
2023-01-29T21:43:20.946Z,0.09
2023-01-29T21:46:23.708Z,-0.08
2023-01-29T21:49:26.654Z,0.02
2023-01-29T21:52:29.341Z,-0.12
2023-01-29T21:55:32.602Z,-0.05
2023-01-29T21:58:35.361Z,-0.02
2023-01-29T22:01:38.836Z,0.09
2023-01-29T22:04:42.449Z,-0.13
2023-01-29T22:07:44.911Z,-0.01
2023-01-29T22:10:47.443Z,-0.02
2023-01-29T22:13:50.059Z,-0.23
2023-01-29T22:16:52.591Z,0.07
2023-01-29T22:19:55.069Z,0.07
2023-01-29T22:23:00.830Z,0.10
2023-01-29T22:26:07.360Z,-0.07
2023-01-29T22:29:12.202Z,-0.07
2023-01-29T22:32:15.028Z,-0.05
2023-01-29T22:35:17.762Z,-0.08
2023-01-29T22:38:20.317Z,-0.15
2023-01-29T22:41:22.836Z,-0.14
2023-01-29T22:44:25.406Z,-0.16
2023-01-29T22:47:27.821Z,-0.05
2023-01-29T22:50:30.318Z,0.03
2023-01-29T22:53:32.836Z,-0.13
2023-01-29T22:56:35.270Z,-0.03
2023-01-29T22:59:37.916Z,-0.02
2023-01-29T23:02:40.479Z,-0.09
2023-01-29T23:05:42.963Z,0.22
2023-01-29T23:08:45.740Z,0.22
2023-01-29T23:11:48.281Z,0.09
2023-01-29T23:14:50.713Z,0.19
2023-01-29T23:17:53.151Z,0.00
2023-01-29T23:20:58.521Z,0.09
2023-01-29T23:24:01.389Z,-0.08
2023-01-29T23:27:16.128Z,0.18
2023-01-29T23:30:18.999Z,0.19
2023-01-29T23:33:21.742Z,-0.03
2023-01-29T23:36:24.220Z,-0.11
2023-01-29T23:39:26.669Z,-0.32
2023-01-29T23:42:29.188Z,-0.22
2023-01-29T23:45:31.637Z,-0.17
2023-01-29T23:48:34.089Z,-0.12
2023-01-29T23:51:36.672Z,-0.36
2023-01-29T23:54:39.093Z,-0.48
2023-01-29T23:57:41.543Z,-0.45
